ORG Airport (Orange County) Information

FAA: ORG - ICAO: KORG

ORG Airport Location

State Texas
County Orange
City Orange
ORG Airport is 3 miles southwest of Orange, TX.
Latitude 30-04-06.4258N
Longitude 093-48-14.4728W
Elevation 13ft

KORG Airport METARs

METAR KORG 251635Z AUTO 28003KT 7SM OVC011 27/26 A3000 RMK AO2 T02700261
Altimeter 30.00"
Temperature 27.0°C (80.6°F)
Wind 280° at 3KT
Clouds overcast at 1,100ft
Visibility 7.0mi
Time observed: 2021-10-25T16:35:00Z

ORG Airport Details

Status Operational
Activation December 1946
Ownership Public
Usage Public
Chart HOUSTON
ATC on-site No
Beacon schedule N/A
Beacon color clear green

ORG Airport Contacts

Owner ORANGE COUNTY
Owner address 123 S. 6TH STREET, ORANGE, TX 77630
Owner phone (409) 882-7070
Manager JACK ROBINSON
Manager address 3220 ROLLING OAKS, DRIVE, NEW BRAUNFELS, TX 78132
Manager phone (830) 626-5400

ORG Airport (Orange County) Radio Frequencies

ORG (Airport) Radio Frequencies

UNICOM 122.8
Common traffic advisory frequency (CTAF) 122.8